PWSweather.com
Personal Weather Stations
Station Observations

YeovilGB

Lat: 50.949, Lon: -2.627

Elevation: 70

Station Type: Vantage Pro

http://www.yeovil-weather.me.uk/

High Low Average
Temperature 39.2°F4.0°C 33.9°F1.1°C 37.8°F3.2°C
Dew Point 36.7°F2.6°C 29.4°F-1.4°C 35.0°F1.7°C
Winds 4.6 mph 7.4 kmh Calm Calm 1.0 mph ENE1.6 kmh ENE
Wind Gusts 11.5 mph18.5 kmh -- 4.0 mph6.4 kmh
Humidity 92% 83% 89%
Pressure 30.23 in1023.7 mb 29.94 in1013.9 mb -
Precipitation 0.00 in0.0 mm - -
Hour Temp Dew Point Humidity Winds Wind Gusts Pressure Precip Precip Rate Daily Precip Total
12:00 AM 34.1°F1.2°C 29.5°F-1.4°C 83% 2.3 mph NNE3.7 kmh NNE 5.8 mph9.3 kmh 30.23 in1023.7 mb - 0.00 in0.0 mm 0.00 in0.0 mm
12:10 AM 34.1°F1.2°C 29.4°F-1.4°C 83% 4.6 mph NNE7.4 kmh NNE 5.8 mph9.3 kmh 30.23 in1023.7 mb - 0.00 in0.0 mm 0.00 in0.0 mm
12:20 AM 34.0°F1.1°C 29.4°F-1.4°C 83% 2.3 mph NNE3.7 kmh NNE 4.6 mph7.4 kmh 30.23 in1023.7 mb - 0.00 in0.0 mm 0.00 in0.0 mm
12:30 AM 33.9°F1.1°C 29.6°F-1.3°C 84% 2.3 mph N3.7 kmh N 5.8 mph9.3 kmh 30.22 in1023.4 mb - 0.00 in0.0 mm 0.00 in0.0 mm
12:40 AM 33.9°F1.1°C 29.6°F-1.3°C 84% 2.3 mph N3.7 kmh N 4.6 mph7.4 kmh 30.22 in1023.4 mb - 0.00 in0.0 mm 0.00 in0.0 mm
12:50 AM 33.9°F1.1°C 29.6°F-1.3°C 84% 3.5 mph 5.6 kmh 5.8 mph9.3 kmh 30.21 in1023.0 mb - 0.00 in0.0 mm 0.00 in0.0 mm
01:00 AM 33.9°F1.1°C 29.8°F-1.2°C 85% 3.5 mph N5.6 kmh N 6.9 mph11.1 kmh 30.21 in1023.0 mb - 0.00 in0.0 mm 0.00 in0.0 mm
01:10 AM 33.9°F1.1°C 29.9°F-1.2°C 85% 4.6 mph N7.4 kmh N 6.9 mph11.1 kmh 30.21 in1023.0 mb - 0.00 in0.0 mm 0.00 in0.0 mm
01:20 AM 34.0°F1.1°C 30.3°F-0.9°C 86% 2.3 mph NE3.7 kmh NE 3.5 mph5.6 kmh 30.21 in1023.0 mb - 0.00 in0.0 mm 0.00 in0.0 mm
01:30 AM 34.1°F1.2°C 30.4°F-0.9°C 86% 3.5 mph NE5.6 kmh NE 5.8 mph9.3 kmh 30.22 in1023.4 mb - 0.00 in0.0 mm 0.00 in0.0 mm
01:40 AM 34.3°F1.3°C 30.5°F-0.8°C 86% 1.2 mph NE1.9 kmh NE 4.6 mph7.4 kmh 30.22 in1023.4 mb - 0.00 in0.0 mm 0.00 in0.0 mm
01:50 AM 34.5°F1.4°C 30.7°F-0.7°C 86% 1.2 mph NNE1.9 kmh NNE 6.9 mph11.1 kmh 30.22 in1023.4 mb - 0.00 in0.0 mm 0.00 in0.0 mm
02:00 AM 34.7°F1.5°C 30.9°F-0.6°C 86% 2.3 mph NNE3.7 kmh NNE 4.6 mph7.4 kmh 30.21 in1023.0 mb - 0.00 in0.0 mm 0.00 in0.0 mm
02:10 AM 34.8°F1.6°C 31.0°F-0.6°C 86% 1.2 mph NNE1.9 kmh NNE 9.2 mph14.8 kmh 30.21 in1023.0 mb - 0.00 in0.0 mm 0.00 in0.0 mm
02:20 AM 35.0°F1.7°C 31.3°F-0.4°C 86% 4.6 mph NE7.4 kmh NE 8.1 mph13.0 kmh 30.21 in1023.0 mb - 0.00 in0.0 mm 0.00 in0.0 mm
02:30 AM 35.2°F1.8°C 31.5°F-0.3°C 86% 1.2 mph NE1.9 kmh NE 4.6 mph7.4 kmh 30.21 in1023.0 mb - 0.00 in0.0 mm 0.00 in0.0 mm
02:40 AM 35.4°F1.9°C 31.9°F-0.1°C 87% 1.2 mph NNE1.9 kmh NNE 3.5 mph5.6 kmh 30.21 in1023.0 mb - 0.00 in0.0 mm 0.00 in0.0 mm
02:50 AM 35.5°F1.9°C 32.0°F0.0°C 87% 2.3 mph N3.7 kmh N 3.5 mph5.6 kmh 30.21 in1023.0 mb - 0.00 in0.0 mm 0.00 in0.0 mm
03:00 AM 35.6°F2.0°C 32.1°F0.1°C 87% 1.2 mph NNE1.9 kmh NNE 5.8 mph9.3 kmh 30.20 in1022.7 mb - 0.00 in0.0 mm 0.00 in0.0 mm
03:10 AM 35.8°F2.1°C 32.3°F0.2°C 87% 1.2 mph NNE1.9 kmh NNE 4.6 mph7.4 kmh 30.21 in1023.0 mb - 0.00 in0.0 mm 0.00 in0.0 mm
03:20 AM 35.9°F2.2°C 32.4°F0.2°C 87% 1.2 mph NNE1.9 kmh NNE 10.4 mph16.7 kmh 30.20 in1022.7 mb - 0.00 in0.0 mm 0.00 in0.0 mm
03:30 AM 36.1°F2.3°C 32.6°F0.3°C 87% Calm Calm 3.5 mph5.6 kmh 30.21 in1023.0 mb - 0.00 in0.0 mm 0.00 in0.0 mm
03:40 AM 36.2°F2.3°C 32.7°F0.4°C 87% Calm Calm -- 30.20 in1022.7 mb - 0.00 in0.0 mm 0.00 in0.0 mm
03:50 AM 36.4°F2.4°C 32.9°F0.5°C 87% 1.2 mph NE1.9 kmh NE 3.5 mph5.6 kmh 30.20 in1022.7 mb - 0.00 in0.0 mm 0.00 in0.0 mm
04:00 AM 36.6°F2.6°C 33.4°F0.8°C 88% 1.2 mph NE1.9 kmh NE 5.8 mph9.3 kmh 30.20 in1022.7 mb - 0.00 in0.0 mm 0.00 in0.0 mm
04:10 AM 36.7°F2.6°C 33.5°F0.8°C 88% 1.2 mph NNE1.9 kmh NNE 5.8 mph9.3 kmh 30.20 in1022.7 mb - 0.00 in0.0 mm 0.00 in0.0 mm
04:20 AM 36.9°F2.7°C 33.4°F0.8°C 87% 1.2 mph N1.9 kmh N -- 30.20 in1022.7 mb - 0.00 in0.0 mm 0.00 in0.0 mm
04:30 AM 37.0°F2.8°C 33.5°F0.8°C 87% 3.5 mph NE5.6 kmh NE 11.5 mph18.5 kmh 30.19 in1022.4 mb - 0.00 in0.0 mm 0.00 in0.0 mm
04:40 AM 37.2°F2.9°C 33.7°F0.9°C 87% Calm Calm -- 30.19 in1022.4 mb - 0.00 in0.0 mm 0.00 in0.0 mm
04:50 AM 37.3°F2.9°C 34.1°F1.2°C 88% 3.5 mph NNE5.6 kmh NNE 8.1 mph13.0 kmh 30.19 in1022.4 mb - 0.00 in0.0 mm 0.00 in0.0 mm
05:00 AM 37.4°F3.0°C 34.2°F1.2°C 88% Calm Calm 4.6 mph7.4 kmh 30.19 in1022.4 mb - 0.00 in0.0 mm 0.00 in0.0 mm
05:10 AM 37.5°F3.1°C 34.3°F1.3°C 88% 2.3 mph ENE3.7 kmh ENE 5.8 mph9.3 kmh 30.19 in1022.4 mb - 0.00 in0.0 mm 0.00 in0.0 mm
05:20 AM 37.5°F3.1°C 34.3°F1.3°C 88% 2.3 mph NE3.7 kmh NE 5.8 mph9.3 kmh 30.19 in1022.4 mb - 0.00 in0.0 mm 0.00 in0.0 mm
05:30 AM 37.6°F3.1°C 34.4°F1.3°C 88% 1.2 mph NE1.9 kmh NE 2.3 mph3.7 kmh 30.19 in1022.4 mb - 0.00 in0.0 mm 0.00 in0.0 mm
05:40 AM 37.7°F3.2°C 34.4°F1.3°C 88% 2.3 mph NE3.7 kmh NE 3.5 mph5.6 kmh 30.19 in1022.4 mb - 0.00 in0.0 mm 0.00 in0.0 mm
05:50 AM 37.7°F3.2°C 34.5°F1.4°C 88% 1.2 mph NE1.9 kmh NE 9.2 mph14.8 kmh 30.19 in1022.4 mb - 0.00 in0.0 mm 0.00 in0.0 mm
06:00 AM 37.7°F3.2°C 34.5°F1.4°C 88% 2.3 mph NE3.7 kmh NE 10.4 mph16.7 kmh 30.19 in1022.4 mb - 0.00 in0.0 mm 0.00 in0.0 mm
06:10 AM 37.7°F3.2°C 34.5°F1.4°C 88% 2.3 mph NNE3.7 kmh NNE 4.6 mph7.4 kmh 30.19 in1022.4 mb - 0.00 in0.0 mm 0.00 in0.0 mm
06:20 AM 37.8°F3.2°C 34.6°F1.4°C 88% 1.2 mph NE1.9 kmh NE 2.3 mph3.7 kmh 30.19 in1022.4 mb - 0.00 in0.0 mm 0.00 in0.0 mm
06:30 AM 37.8°F3.2°C 34.6°F1.4°C 88% Calm Calm -- 30.18 in1022.0 mb - 0.00 in0.0 mm 0.00 in0.0 mm
06:40 AM 37.8°F3.2°C 34.6°F1.4°C 88% 4.6 mph ENE7.4 kmh ENE 10.4 mph16.7 kmh 30.18 in1022.0 mb - 0.00 in0.0 mm 0.00 in0.0 mm
06:50 AM 37.9°F3.3°C 34.7°F1.5°C 88% Calm Calm -- 30.18 in1022.0 mb - 0.00 in0.0 mm 0.00 in0.0 mm
07:00 AM 37.9°F3.3°C 34.7°F1.5°C 88% 1.2 mph NE1.9 kmh NE 3.5 mph5.6 kmh 30.18 in1022.0 mb - 0.00 in0.0 mm 0.00 in0.0 mm
07:10 AM 37.9°F3.3°C 34.7°F1.5°C 88% 1.2 mph NE1.9 kmh NE 5.8 mph9.3 kmh 30.18 in1022.0 mb - 0.00 in0.0 mm 0.00 in0.0 mm
07:20 AM 37.9°F3.3°C 34.7°F1.5°C 88% Calm Calm 2.3 mph3.7 kmh 30.18 in1022.0 mb - 0.00 in0.0 mm 0.00 in0.0 mm
07:30 AM 37.9°F3.3°C 34.7°F1.5°C 88% Calm Calm -- 30.18 in1022.0 mb - 0.00 in0.0 mm 0.00 in0.0 mm
07:40 AM 37.9°F3.3°C 34.7°F1.5°C 88% 1.2 mph NE1.9 kmh NE 8.1 mph13.0 kmh 30.18 in1022.0 mb - 0.00 in0.0 mm 0.00 in0.0 mm
07:50 AM 38.0°F3.3°C 34.7°F1.5°C 88% 2.3 mph ENE3.7 kmh ENE 3.5 mph5.6 kmh 30.18 in1022.0 mb - 0.00 in0.0 mm 0.00 in0.0 mm
08:00 AM 38.0°F3.3°C 34.7°F1.5°C 88% Calm Calm -- 30.18 in1022.0 mb - 0.00 in0.0 mm 0.00 in0.0 mm
08:10 AM 37.9°F3.3°C 35.0°F1.7°C 89% Calm Calm -- 30.18 in1022.0 mb - 0.00 in0.0 mm 0.00 in0.0 mm
08:20 AM 37.9°F3.3°C 34.9°F1.6°C 89% Calm Calm -- 30.18 in1022.0 mb - 0.00 in0.0 mm 0.00 in0.0 mm
08:30 AM 37.9°F3.3°C 35.0°F1.7°C 89% Calm Calm -- 30.18 in1022.0 mb - 0.00 in0.0 mm 0.00 in0.0 mm
08:40 AM 38.0°F3.3°C 35.0°F1.7°C 89% 1.2 mph NE1.9 kmh NE 5.8 mph9.3 kmh 30.18 in1022.0 mb - 0.00 in0.0 mm 0.00 in0.0 mm
08:50 AM 38.0°F3.3°C 35.0°F1.7°C 89% 3.5 mph NE5.6 kmh NE 5.8 mph9.3 kmh 30.18 in1022.0 mb - 0.00 in0.0 mm 0.00 in0.0 mm
09:00 AM 38.1°F3.4°C 35.1°F1.7°C 89% 2.3 mph E3.7 kmh E 3.5 mph5.6 kmh 30.18 in1022.0 mb - 0.00 in0.0 mm 0.00 in0.0 mm
09:10 AM 38.1°F3.4°C 35.1°F1.7°C 89% Calm Calm -- 30.18 in1022.0 mb - 0.00 in0.0 mm 0.00 in0.0 mm
09:20 AM 38.1°F3.4°C 35.2°F1.8°C 89% Calm Calm 3.5 mph5.6 kmh 30.18 in1022.0 mb - 0.00 in0.0 mm 0.00 in0.0 mm
09:30 AM 38.1°F3.4°C 35.5°F1.9°C 90% Calm Calm -- 30.18 in1022.0 mb - 0.00 in0.0 mm 0.00 in0.0 mm
09:40 AM 38.2°F3.4°C 35.2°F1.8°C 89% Calm Calm 2.3 mph3.7 kmh 30.18 in1022.0 mb - 0.00 in0.0 mm 0.00 in0.0 mm
09:50 AM 38.2°F3.4°C 35.6°F2.0°C 90% Calm Calm 1.2 mph1.9 kmh 30.18 in1022.0 mb - 0.00 in0.0 mm 0.00 in0.0 mm
10:00 AM 38.3°F3.5°C 35.6°F2.0°C 90% Calm Calm 3.5 mph5.6 kmh 30.18 in1022.0 mb - 0.00 in0.0 mm 0.00 in0.0 mm
10:10 AM 38.4°F3.6°C 35.7°F2.1°C 90% 1.2 mph NE1.9 kmh NE 8.1 mph13.0 kmh 30.18 in1022.0 mb - 0.00 in0.0 mm 0.00 in0.0 mm
10:20 AM 38.4°F3.6°C 35.7°F2.1°C 90% Calm Calm -- 30.17 in1021.7 mb - 0.00 in0.0 mm 0.00 in0.0 mm
10:30 AM 38.4°F3.6°C 35.8°F2.1°C 90% 2.3 mph NE3.7 kmh NE 5.8 mph9.3 kmh 30.17 in1021.7 mb - 0.00 in0.0 mm 0.00 in0.0 mm
10:40 AM 38.5°F3.6°C 35.8°F2.1°C 90% 2.3 mph E3.7 kmh E 1.2 mph1.9 kmh 30.17 in1021.7 mb - 0.00 in0.0 mm 0.00 in0.0 mm
10:50 AM 38.6°F3.7°C 35.9°F2.2°C 90% Calm Calm 1.2 mph1.9 kmh 30.16 in1021.3 mb - 0.00 in0.0 mm 0.00 in0.0 mm
11:00 AM 38.7°F3.7°C 36.0°F2.2°C 90% Calm Calm 3.5 mph5.6 kmh 30.16 in1021.3 mb - 0.00 in0.0 mm 0.00 in0.0 mm
11:10 AM 38.7°F3.7°C 36.0°F2.2°C 90% Calm Calm 1.2 mph1.9 kmh 30.16 in1021.3 mb - 0.00 in0.0 mm 0.00 in0.0 mm
11:20 AM 38.8°F3.8°C 36.1°F2.3°C 90% Calm Calm 3.5 mph5.6 kmh 30.16 in1021.3 mb - 0.00 in0.0 mm 0.00 in0.0 mm
11:30 AM 38.8°F3.8°C 36.1°F2.3°C 90% Calm Calm 5.8 mph9.3 kmh 30.16 in1021.3 mb - 0.00 in0.0 mm 0.00 in0.0 mm
11:40 AM 38.9°F3.8°C 36.2°F2.3°C 90% Calm Calm 2.3 mph3.7 kmh 30.15 in1021.0 mb - 0.00 in0.0 mm 0.00 in0.0 mm
11:50 AM 38.9°F3.8°C 36.2°F2.3°C 90% 1.2 mph ENE1.9 kmh ENE 6.9 mph11.1 kmh 30.14 in1020.7 mb - 0.00 in0.0 mm 0.00 in0.0 mm
12:00 PM 39.0°F3.9°C 36.3°F2.4°C 90% Calm Calm -- 30.14 in1020.7 mb - 0.00 in0.0 mm 0.00 in0.0 mm
12:10 PM 39.1°F3.9°C 36.4°F2.4°C 90% Calm Calm 2.3 mph3.7 kmh 30.14 in1020.7 mb - 0.00 in0.0 mm 0.00 in0.0 mm
12:20 PM 39.1°F3.9°C 36.4°F2.4°C 90% Calm Calm -- 30.14 in1020.7 mb - 0.00 in0.0 mm 0.00 in0.0 mm
12:30 PM 39.2°F4.0°C 36.5°F2.5°C 90% 1.2 mph NE1.9 kmh NE 3.5 mph5.6 kmh 30.14 in1020.7 mb - 0.00 in0.0 mm 0.00 in0.0 mm
12:40 PM 39.1°F3.9°C 36.4°F2.4°C 90% 1.2 mph NE1.9 kmh NE 2.3 mph3.7 kmh 30.13 in1020.3 mb - 0.00 in0.0 mm 0.00 in0.0 mm
12:50 PM 39.2°F4.0°C 36.5°F2.5°C 90% Calm Calm 5.8 mph9.3 kmh 30.12 in1020.0 mb - 0.00 in0.0 mm 0.00 in0.0 mm
01:00 PM 39.2°F4.0°C 36.5°F2.5°C 90% Calm Calm 3.5 mph5.6 kmh 30.12 in1020.0 mb - 0.00 in0.0 mm 0.00 in0.0 mm
01:10 PM 39.2°F4.0°C 36.5°F2.5°C 90% 2.3 mph E3.7 kmh E 6.9 mph11.1 kmh 30.12 in1020.0 mb - 0.00 in0.0 mm 0.00 in0.0 mm
01:20 PM 39.1°F3.9°C 36.5°F2.5°C 90% Calm Calm 2.3 mph3.7 kmh 30.12 in1020.0 mb - 0.00 in0.0 mm 0.00 in0.0 mm
01:30 PM 39.2°F4.0°C 36.5°F2.5°C 90% Calm Calm 2.3 mph3.7 kmh 30.11 in1019.6 mb - 0.00 in0.0 mm 0.00 in0.0 mm
01:40 PM 39.1°F3.9°C 36.4°F2.4°C 90% Calm Calm 2.3 mph3.7 kmh 30.11 in1019.6 mb - 0.00 in0.0 mm 0.00 in0.0 mm
01:50 PM 39.2°F4.0°C 36.5°F2.5°C 90% 1.2 mph E1.9 kmh E 4.6 mph7.4 kmh 30.11 in1019.6 mb - 0.00 in0.0 mm 0.00 in0.0 mm
02:00 PM 39.2°F4.0°C 36.5°F2.5°C 90% Calm Calm -- 30.11 in1019.6 mb - 0.00 in0.0 mm 0.00 in0.0 mm
02:10 PM 39.2°F4.0°C 36.5°F2.5°C 90% 1.2 mph E1.9 kmh E 4.6 mph7.4 kmh 30.10 in1019.3 mb - 0.00 in0.0 mm 0.00 in0.0 mm
02:20 PM 39.2°F4.0°C 36.5°F2.5°C 90% 1.2 mph ENE1.9 kmh ENE 2.3 mph3.7 kmh 30.09 in1019.0 mb - 0.00 in0.0 mm 0.00 in0.0 mm
02:30 PM 39.1°F3.9°C 36.4°F2.4°C 90% Calm Calm -- 30.09 in1019.0 mb - 0.00 in0.0 mm 0.00 in0.0 mm
02:40 PM 39.1°F3.9°C 36.4°F2.4°C 90% 1.2 mph NE1.9 kmh NE 3.5 mph5.6 kmh 30.09 in1019.0 mb - 0.00 in0.0 mm 0.00 in0.0 mm
02:50 PM 39.1°F3.9°C 36.7°F2.6°C 91% 1.2 mph NE1.9 kmh NE 3.5 mph5.6 kmh 30.09 in1019.0 mb - 0.00 in0.0 mm 0.00 in0.0 mm
03:00 PM 39.0°F3.9°C 36.6°F2.6°C 91% Calm Calm 1.2 mph1.9 kmh 30.08 in1018.6 mb - 0.00 in0.0 mm 0.00 in0.0 mm
03:10 PM 38.9°F3.8°C 36.5°F2.5°C 91% 1.2 mph ENE1.9 kmh ENE 4.6 mph7.4 kmh 30.07 in1018.3 mb - 0.00 in0.0 mm 0.00 in0.0 mm
03:20 PM 38.8°F3.8°C 36.4°F2.4°C 91% 2.3 mph NE3.7 kmh NE 6.9 mph11.1 kmh 30.08 in1018.6 mb - 0.00 in0.0 mm 0.00 in0.0 mm
03:30 PM 38.7°F3.7°C 36.3°F2.4°C 91% 2.3 mph NNE3.7 kmh NNE 11.5 mph18.5 kmh 30.08 in1018.6 mb - 0.00 in0.0 mm 0.00 in0.0 mm
03:40 PM 38.7°F3.7°C 36.3°F2.4°C 91% 1.2 mph NE1.9 kmh NE 4.6 mph7.4 kmh 30.08 in1018.6 mb - 0.00 in0.0 mm 0.00 in0.0 mm
03:50 PM 38.6°F3.7°C 36.2°F2.3°C 91% Calm Calm 1.2 mph1.9 kmh 30.08 in1018.6 mb - 0.00 in0.0 mm 0.00 in0.0 mm
04:00 PM 38.5°F3.6°C 36.1°F2.3°C 91% Calm Calm 4.6 mph7.4 kmh 30.07 in1018.3 mb - 0.00 in0.0 mm 0.00 in0.0 mm
04:10 PM 38.5°F3.6°C 36.1°F2.3°C 91% 2.3 mph ENE3.7 kmh ENE 5.8 mph9.3 kmh 30.07 in1018.3 mb - 0.00 in0.0 mm 0.00 in0.0 mm
04:20 PM 38.4°F3.6°C 36.3°F2.4°C 92% Calm Calm -- 30.07 in1018.3 mb - 0.00 in0.0 mm 0.00 in0.0 mm
04:30 PM 38.5°F3.6°C 36.4°F2.4°C 92% Calm Calm 3.5 mph5.6 kmh 30.07 in1018.3 mb - 0.00 in0.0 mm 0.00 in0.0 mm
04:40 PM 38.4°F3.6°C 36.3°F2.4°C 92% 2.3 mph NE3.7 kmh NE 8.1 mph13.0 kmh 30.07 in1018.3 mb - 0.00 in0.0 mm 0.00 in0.0 mm
04:50 PM 38.4°F3.6°C 36.3°F2.4°C 92% 2.3 mph NE3.7 kmh NE 6.9 mph11.1 kmh 30.06 in1017.9 mb - 0.00 in0.0 mm 0.00 in0.0 mm
05:00 PM 38.3°F3.5°C 36.2°F2.3°C 92% 2.3 mph ENE3.7 kmh ENE 4.6 mph7.4 kmh 30.07 in1018.3 mb - 0.00 in0.0 mm 0.00 in0.0 mm
05:10 PM 38.3°F3.5°C 36.2°F2.3°C 92% Calm Calm 1.2 mph1.9 kmh 30.07 in1018.3 mb - 0.00 in0.0 mm 0.00 in0.0 mm
05:20 PM 38.3°F3.5°C 36.2°F2.3°C 92% Calm Calm 3.5 mph5.6 kmh 30.06 in1017.9 mb - 0.00 in0.0 mm 0.00 in0.0 mm
05:30 PM 38.4°F3.6°C 36.3°F2.4°C 92% 2.3 mph ENE3.7 kmh ENE 4.6 mph7.4 kmh 30.06 in1017.9 mb - 0.00 in0.0 mm 0.00 in0.0 mm
05:40 PM 38.4°F3.6°C 36.3°F2.4°C 92% Calm Calm 5.8 mph9.3 kmh 30.05 in1017.6 mb - 0.00 in0.0 mm 0.00 in0.0 mm
05:50 PM 38.5°F3.6°C 36.3°F2.4°C 92% 1.2 mph ENE1.9 kmh ENE 4.6 mph7.4 kmh 30.05 in1017.6 mb - 0.00 in0.0 mm 0.00 in0.0 mm
06:00 PM 38.5°F3.6°C 36.4°F2.4°C 92% Calm Calm -- 30.05 in1017.6 mb - 0.00 in0.0 mm 0.00 in0.0 mm
06:10 PM 38.6°F3.7°C 36.5°F2.5°C 92% Calm Calm 3.5 mph5.6 kmh 30.05 in1017.6 mb - 0.00 in0.0 mm 0.00 in0.0 mm
06:20 PM 38.6°F3.7°C 36.5°F2.5°C 92% Calm Calm 2.3 mph3.7 kmh 30.04 in1017.3 mb - 0.00 in0.0 mm 0.00 in0.0 mm
06:30 PM 38.7°F3.7°C 36.6°F2.6°C 92% Calm Calm -- 30.04 in1017.3 mb - 0.00 in0.0 mm 0.00 in0.0 mm
06:40 PM 38.7°F3.7°C 36.6°F2.6°C 92% 2.3 mph ENE3.7 kmh ENE 6.9 mph11.1 kmh 30.04 in1017.3 mb - 0.00 in0.0 mm 0.00 in0.0 mm
06:50 PM 38.7°F3.7°C 36.6°F2.6°C 92% Calm Calm -- 30.04 in1017.3 mb - 0.00 in0.0 mm 0.00 in0.0 mm
07:00 PM 38.7°F3.7°C 36.6°F2.6°C 92% 1.2 mph ENE1.9 kmh ENE 3.5 mph5.6 kmh 30.04 in1017.3 mb - 0.00 in0.0 mm 0.00 in0.0 mm
07:10 PM 38.8°F3.8°C 36.6°F2.6°C 92% 2.3 mph E3.7 kmh E 10.4 mph16.7 kmh 30.04 in1017.3 mb - 0.00 in0.0 mm 0.00 in0.0 mm
07:20 PM 38.8°F3.8°C 36.7°F2.6°C 92% 2.3 mph NE3.7 kmh NE 5.8 mph9.3 kmh 30.03 in1016.9 mb - 0.00 in0.0 mm 0.00 in0.0 mm
07:30 PM 38.8°F3.8°C 36.7°F2.6°C 92% Calm Calm 2.3 mph3.7 kmh 30.02 in1016.6 mb - 0.00 in0.0 mm 0.00 in0.0 mm
07:40 PM 38.8°F3.8°C 36.7°F2.6°C 92% Calm Calm 3.5 mph5.6 kmh 30.02 in1016.6 mb - 0.00 in0.0 mm 0.00 in0.0 mm
07:50 PM 38.8°F3.8°C 36.7°F2.6°C 92% Calm Calm 5.8 mph9.3 kmh 30.03 in1016.9 mb - 0.00 in0.0 mm 0.00 in0.0 mm
08:00 PM 38.8°F3.8°C 36.7°F2.6°C 92% Calm Calm 3.5 mph5.6 kmh 30.01 in1016.3 mb - 0.00 in0.0 mm 0.00 in0.0 mm
08:20 PM 38.7°F3.7°C 36.6°F2.6°C 92% 3.5 mph ENE5.6 kmh ENE 10.4 mph16.7 kmh 30.01 in1016.3 mb - 0.00 in0.0 mm 0.00 in0.0 mm
08:30 PM 38.7°F3.7°C 36.6°F2.6°C 92% 1.2 mph NE1.9 kmh NE 4.6 mph7.4 kmh 30.01 in1016.3 mb - 0.00 in0.0 mm 0.00 in0.0 mm
08:40 PM 38.7°F3.7°C 36.6°F2.6°C 92% 2.3 mph E3.7 kmh E 9.2 mph14.8 kmh 30.01 in1016.3 mb - 0.00 in0.0 mm 0.00 in0.0 mm
08:50 PM 38.6°F3.7°C 36.5°F2.5°C 92% 2.3 mph E3.7 kmh E 5.8 mph9.3 kmh 30.00 in1015.9 mb - 0.00 in0.0 mm 0.00 in0.0 mm
09:00 PM 38.6°F3.7°C 36.2°F2.3°C 91% 1.2 mph ESE1.9 kmh ESE 4.6 mph7.4 kmh 30.00 in1015.9 mb - 0.00 in0.0 mm 0.00 in0.0 mm
09:10 PM 38.6°F3.7°C 36.5°F2.5°C 92% 1.2 mph SE1.9 kmh SE 8.1 mph13.0 kmh 29.99 in1015.6 mb - 0.00 in0.0 mm 0.00 in0.0 mm
09:20 PM 38.5°F3.6°C 36.1°F2.3°C 91% 2.3 mph ENE3.7 kmh ENE 6.9 mph11.1 kmh 29.99 in1015.6 mb - 0.00 in0.0 mm 0.00 in0.0 mm
09:30 PM 38.5°F3.6°C 36.4°F2.4°C 92% 3.5 mph E5.6 kmh E 6.9 mph11.1 kmh 29.99 in1015.6 mb - 0.00 in0.0 mm 0.00 in0.0 mm
09:40 PM 38.5°F3.6°C 36.1°F2.3°C 91% 2.3 mph E3.7 kmh E 4.6 mph7.4 kmh 29.98 in1015.2 mb - 0.00 in0.0 mm 0.00 in0.0 mm
09:50 PM 38.4°F3.6°C 36.0°F2.2°C 91% 3.5 mph E5.6 kmh E 9.2 mph14.8 kmh 29.98 in1015.2 mb - 0.00 in0.0 mm 0.00 in0.0 mm
10:00 PM 38.4°F3.6°C 36.0°F2.2°C 91% 1.2 mph E1.9 kmh E 4.6 mph7.4 kmh 29.98 in1015.2 mb - 0.00 in0.0 mm 0.00 in0.0 mm
10:10 PM 38.4°F3.6°C 36.3°F2.4°C 92% Calm Calm 2.3 mph3.7 kmh 29.98 in1015.2 mb - 0.00 in0.0 mm 0.00 in0.0 mm
10:20 PM 38.4°F3.6°C 36.3°F2.4°C 92% 2.3 mph ESE3.7 kmh ESE 6.9 mph11.1 kmh 29.98 in1015.2 mb - 0.00 in0.0 mm 0.00 in0.0 mm
10:30 PM 38.4°F3.6°C 36.3°F2.4°C 92% 1.2 mph E1.9 kmh E 6.9 mph11.1 kmh 29.97 in1014.9 mb - 0.00 in0.0 mm 0.00 in0.0 mm
10:40 PM 38.4°F3.6°C 36.3°F2.4°C 92% Calm Calm 6.9 mph11.1 kmh 29.97 in1014.9 mb - 0.00 in0.0 mm 0.00 in0.0 mm
10:50 PM 38.4°F3.6°C 36.3°F2.4°C 92% Calm Calm 2.3 mph3.7 kmh 29.97 in1014.9 mb - 0.00 in0.0 mm 0.00 in0.0 mm
11:00 PM 38.4°F3.6°C 36.3°F2.4°C 92% 3.5 mph ESE5.6 kmh ESE 9.2 mph14.8 kmh 29.96 in1014.6 mb - 0.00 in0.0 mm 0.00 in0.0 mm
11:10 PM 38.4°F3.6°C 36.3°F2.4°C 92% 2.3 mph SE3.7 kmh SE 4.6 mph7.4 kmh 29.96 in1014.6 mb - 0.00 in0.0 mm 0.00 in0.0 mm
11:20 PM 38.4°F3.6°C 36.2°F2.3°C 92% Calm Calm 4.6 mph7.4 kmh 29.95 in1014.2 mb - 0.00 in0.0 mm 0.00 in0.0 mm
11:30 PM 38.3°F3.5°C 36.2°F2.3°C 92% Calm Calm 6.9 mph11.1 kmh 29.95 in1014.2 mb - 0.00 in0.0 mm 0.00 in0.0 mm
11:40 PM 38.3°F3.5°C 36.2°F2.3°C 92% 1.2 mph E1.9 kmh E 3.5 mph5.6 kmh 29.94 in1013.9 mb - 0.00 in0.0 mm 0.00 in0.0 mm
11:50 PM 38.3°F3.5°C 36.1°F2.3°C 92% 1.2 mph E1.9 kmh E 5.8 mph9.3 kmh 29.94 in1013.9 mb - 0.00 in0.0 mm 0.00 in0.0 mm